Time;durP1;ratioP1;P1;durP2;ratioP2;P2;SDS_P1;SDS_P2;PMS_P1;PMS_P2;Temp;Humidity;BMP_temperature;BMP_pressure;BME280_temperature;BME280_humidity;BME280_pressure;Samples;Min_cycle;Max_cycle;Signal;HPM_P1;HPM_P2
2022/12/12 00:00:08;;;;;;;33.53;18.27;;;0.00;99.90;;;;;;5091905;28;20046;-44
2022/12/12 00:02:37;;;;;;;35.47;18.77;;;0.00;99.90;;;;;;5092250;27;20039;-46
2022/12/12 00:05:03;;;;;;;31.50;18.85;;;;;;;;;;5092363;28;20749;-43
2022/12/12 00:07:29;;;;;;;30.75;18.35;;;;;;;;;;5091672;28;20057;-43
2022/12/12 00:09:55;;;;;;;34.25;18.83;;;;;;;;;;5092967;28;20393;-43
2022/12/12 00:12:21;;;;;;;31.85;18.20;;;;;;;;;;5092507;28;20590;-43
2022/12/12 00:14:47;;;;;;;34.65;18.63;;;;;;;;;;5091900;28;20043;-42
2022/12/12 00:17:13;;;;;;;36.38;18.92;;;;;;;;;;5092359;28;20051;-44
2022/12/12 00:19:42;;;;;;;30.00;17.98;;;;;;;;;;5092747;27;20047;-44
2022/12/12 00:22:08;;;;;;;33.65;19.67;;;;;;;;;;5093953;28;20043;-44
2022/12/12 00:24:34;;;;;;;32.10;17.80;;;;;;;;;;5093451;28;20607;-44
2022/12/12 00:27:00;;;;;;;32.08;18.35;;;;;;;;;;5094465;27;20105;-43
2022/12/12 00:29:26;;;;;;;31.08;17.55;;;;;;;;;;5092460;27;23767;-44
2022/12/12 00:31:52;;;;;;;35.30;19.92;;;;;;;;;;5094034;28;20542;-44
2022/12/12 00:34:18;;;;;;;29.00;17.08;;;;;;;;;;5093173;27;21286;-44
2022/12/12 00:36:44;;;;;;;32.78;18.95;;;;;;;;;;5092065;27;20035;-43
2022/12/12 00:39:10;;;;;;;33.30;19.05;;;;;;;;;;5093451;27;20031;-43
2022/12/12 00:41:36;;;;;;;32.92;19.08;;;;;;;;;;5091052;28;20050;-43
2022/12/12 00:44:03;;;;;;;32.33;17.60;;;;;;;;;;5092615;28;20075;-44
2022/12/12 00:46:29;;;;;;;36.30;19.35;;;;;;;;;;5092479;28;20051;-44
2022/12/12 00:48:56;;;;;;;30.83;19.00;;;;;;;;;;5092482;28;20036;-43
2022/12/12 00:51:24;;;;;;;32.08;18.60;;;;;;;;;;5093306;28;20586;-44
2022/12/12 00:53:51;;;;;;;31.45;18.58;;;;;;;;;;5091385;28;20046;-44
2022/12/12 00:56:19;;;;;;;34.63;18.55;;;0.00;99.90;;;;;;5092184;28;20396;-43
2022/12/12 00:58:45;;;;;;;34.13;18.20;;;;;;;;;;5091501;28;20050;-43
2022/12/12 01:01:12;;;;;;;33.15;19.08;;;;;;;;;;5091023;28;20160;-44
2022/12/12 01:03:40;;;;;;;31.67;18.52;;;;;;;;;;5092380;28;20036;-43
2022/12/12 01:06:07;;;;;;;32.45;18.88;;;;;;;;;;5091591;28;20054;-44
2022/12/12 01:08:33;;;;;;;31.92;17.77;;;0.00;99.90;;;;;;5091639;28;20399;-42
2022/12/12 01:10:59;;;;;;;31.88;18.23;;;;;;;;;;5092315;28;20039;-43
2022/12/12 01:13:25;;;;;;;31.67;17.80;;;;;;;;;;5092576;28;20448;-44
2022/12/12 01:15:51;;;;;;;31.42;18.85;;;;;;;;;;5091346;28;20039;-44
2022/12/12 01:18:18;;;;;;;31.17;17.92;;;;;;;;;;5092018;28;20570;-45
2022/12/12 01:20:44;;;;;;;34.70;18.55;;;;;;;;;;5090683;28;20728;-44
2022/12/12 01:23:10;;;;;;;30.77;18.17;;;;;;;;;;5092246;28;20044;-44
2022/12/12 01:25:36;;;;;;;32.08;17.73;;;;;;;;;;5091124;28;20115;-46
2022/12/12 01:28:03;;;;;;;32.00;18.48;;;;;;;;;;5090943;28;20036;-43
2022/12/12 01:30:29;;;;;;;33.08;17.55;;;;;;;;;;5089206;28;20673;-43
2022/12/12 01:32:55;;;;;;;32.72;17.88;;;;;;;;;;5091848;28;20511;-44
2022/12/12 01:35:21;;;;;;;31.45;18.17;;;;;;;;;;5091228;28;20559;-43
2022/12/12 01:37:48;;;;;;;35.47;18.65;;;;;;;;;;5091794;28;20109;-45
2022/12/12 01:40:18;;;;;;;28.98;16.95;;;;;;;;;;5092071;28;20543;-44
2022/12/12 01:42:45;;;;;;;30.80;17.80;;;;;;;;;;5091278;28;20138;-45
2022/12/12 01:45:34;;;;;;;31.52;17.30;;;;;;;;;;5091075;28;20419;-43
2022/12/12 01:48:00;;;;;;;29.65;17.70;;;;;;;;;;5070961;28;20050;-44
2022/12/12 01:50:26;;;;;;;30.00;17.55;;;;;;;;;;5092162;28;20267;-42
2022/12/12 01:52:52;;;;;;;32.55;17.98;;;;;;;;;;5093367;28;20093;-45
2022/12/12 01:55:21;;;;;;;31.40;17.95;;;-0.10;99.90;;;;;;5092750;28;20420;-43
2022/12/12 01:57:52;;;;;;;30.30;16.98;;;0.00;99.90;;;;;;5092589;28;20118;-43
2022/12/12 02:00:18;;;;;;;31.52;17.70;;;;;;;;;;5092776;27;20514;-43
2022/12/12 02:02:45;;;;;;;32.33;17.73;;;;;;;;;;5091608;28;20043;-44
2022/12/12 02:05:22;;;;;;;29.75;16.73;;;0.40;99.90;;;;;;5093412;28;20058;-43
2022/12/12 02:07:48;;;;;;;32.42;18.45;;;;;;;;;;5095771;27;20071;-43
2022/12/12 02:10:14;;;;;;;29.35;17.38;;;;;;;;;;5096360;27;20039;-42
2022/12/12 02:12:40;;;;;;;31.17;18.17;;;;;;;;;;5096495;27;20124;-44
2022/12/12 02:15:06;;;;;;;30.20;16.77;;;0.00;99.90;;;;;;5096258;27;20047;-43
2022/12/12 02:17:53;;;;;;;33.90;18.60;;;-0.10;99.90;;;;;;5096095;27;20093;-43
2022/12/12 02:20:38;;;;;;;30.35;16.63;;;;;;;;;;5095300;27;20396;-45
2022/12/12 02:23:04;;;;;;;28.20;16.92;;;;;;;;;;5095765;27;20067;-43
2022/12/12 02:25:45;;;;;;;30.83;17.98;;;;;;;;;;5095569;27;20094;-44
2022/12/12 02:28:26;;;;;;;32.53;18.20;;;;;;;;;;5094426;28;20047;-42
2022/12/12 02:31:07;;;;;;;30.63;16.58;;;;;;;;;;5094808;27;20060;-43
2022/12/12 02:33:37;;;;;;;32.38;17.35;;;;;;;;;;5094411;27;20211;-44
2022/12/12 02:36:06;;;;;;;28.50;16.98;;;;;;;;;;5093876;28;20151;-43
2022/12/12 02:38:38;;;;;;;32.97;17.23;;;;;;;;;;5093789;27;20166;-44
2022/12/12 02:41:15;;;;;;;27.50;16.55;;;;;;;;;;5091975;28;20576;-44
2022/12/12 02:43:51;;;;;;;28.85;17.40;;;;;;;;;;5093281;27;20147;-43
2022/12/12 02:46:20;;;;;;;30.30;17.10;;;;;;;;;;5093676;27;20525;-43
2022/12/12 02:48:54;;;;;;;29.05;17.08;;;;;;;;;;5093656;27;20035;-43
2022/12/12 02:51:20;;;;;;;27.52;15.52;;;;;;;;;;5094916;27;20042;-45
2022/12/12 02:53:46;;;;;;;31.38;16.83;;;;;;;;;;5093847;27;20036;-43
2022/12/12 02:56:31;;;;;;;32.13;17.27;;;;;;;;;;5093673;28;20057;-42
2022/12/12 02:58:57;;;;;;;29.33;16.20;;;;;;;;;;5094131;27;20092;-45
2022/12/12 03:01:31;;;;;;;26.90;16.77;;;;;;;;;;5093095;27;20052;-44
2022/12/12 03:09:50;;;;;;;29.77;15.52;;;;;;;;;;5092829;28;20048;-43
2022/12/12 03:12:30;;;;;;;27.13;16.65;;;-0.10;99.90;;;;;;5093478;27;20127;-43
2022/12/12 03:15:01;;;;;;;26.70;15.20;;;;;;;;;;5093769;27;20355;-43
2022/12/12 03:17:33;;;;;;;27.90;15.93;;;;;;;;;;5094495;27;20313;-44
2022/12/12 03:19:59;;;;;;;27.83;16.70;;;;;;;;;;5093780;27;20032;-44
2022/12/12 03:22:55;;;;;;;26.27;14.90;;;;;;;;;;5094248;27;20055;-45
2022/12/12 03:25:25;;;;;;;27.48;15.15;;;;;;;;;;5075461;28;20055;-43
2022/12/12 03:28:01;;;;;;;27.77;15.25;;;;;;;;;;5094729;27;20040;-44
2022/12/12 03:30:30;;;;;;;29.27;15.63;;;;;;;;;;5094764;28;20795;-43
2022/12/12 03:33:00;;;;;;;26.48;16.15;;;;;;;;;;5094345;28;20038;-44
2022/12/12 03:35:32;;;;;;;29.48;15.75;;;0.00;99.90;;;;;;5095942;27;20050;-43
2022/12/12 03:38:14;;;;;;;25.90;15.52;;;0.00;99.90;;;;;;5095046;27;20083;-43
2022/12/12 03:40:48;;;;;;;23.77;14.43;;;;;;;;;;5093479;27;20035;-45
2022/12/12 03:43:17;;;;;;;27.02;15.65;;;;;;;;;;5093812;27;20079;-44
2022/12/12 03:45:56;;;;;;;26.25;15.70;;;;;;;;;;5092604;28;20119;-43
2022/12/12 03:48:30;;;;;;;28.05;16.27;;;;;;;;;;5093466;28;20079;-43
2022/12/12 03:51:08;;;;;;;26.50;15.15;;;;;;;;;;5092314;28;20039;-45
2022/12/12 03:53:37;;;;;;;26.58;15.20;;;;;;;;;;5093206;28;20051;-44
2022/12/12 03:56:11;;;;;;;28.27;16.58;;;0.10;99.90;;;;;;5093346;27;20548;-44
2022/12/12 03:58:37;;;;;;;25.40;15.23;;;;;;;;;;5092628;28;20602;-44
2022/12/12 04:01:06;;;;;;;27.40;15.98;;;;;;;;;;5091266;28;20067;-46
2022/12/12 04:03:58;;;;;;;26.15;15.50;;;;;;;;;;5092450;28;20040;-43
2022/12/12 04:06:33;;;;;;;26.98;15.68;;;;;;;;;;5090452;28;20447;-43
2022/12/12 04:14:56;;;;;;;27.13;14.73;;;;;;;;;;5092407;27;20509;-44
2022/12/12 04:17:25;;;;;;;28.48;15.77;;;;;;;;;;5092026;27;20663;-44
2022/12/12 04:23:14;;;;;;;25.58;15.38;;;;;;;;;;5093163;27;20055;-44
2022/12/12 04:28:34;;;;;;;25.73;15.50;;;;;;;;;;5092268;27;20047;-45
2022/12/12 04:31:03;;;;;;;27.20;15.35;;;;;;;;;;5093093;27;20069;-45
2022/12/12 04:33:34;;;;;;;27.15;15.52;;;;;;;;;;5094312;28;20138;-44
2022/12/12 04:36:01;;;;;;;27.30;15.47;;;;;;;;;;5092808;28;20040;-44
2022/12/12 04:38:28;;;;;;;26.33;15.05;;;;;;;;;;5092498;28;20040;-44
2022/12/12 04:40:56;;;;;;;24.52;15.43;;;;;;;;;;5093539;28;20399;-44
2022/12/12 04:43:25;;;;;;;27.95;15.68;;;;;;;;;;5094347;28;23677;-43
2022/12/12 04:45:54;;;;;;;26.67;15.05;;;;;;;;;;5093012;28;20130;-42
2022/12/12 04:48:23;;;;;;;25.20;15.38;;;;;;;;;;5095384;27;20036;-43
2022/12/12 04:50:50;;;;;;;26.00;15.80;;;;;;;;;;5094231;28;20143;-43
2022/12/12 04:53:17;;;;;;;26.55;15.38;;;;;;;;;;5093692;28;20047;-45
2022/12/12 04:55:47;;;;;;;29.10;16.98;;;;;;;;;;5092306;28;20497;-44
2022/12/12 04:58:14;;;;;;;26.67;16.15;;;;;;;;;;5092399;28;20104;-44
2022/12/12 05:01:06;;;;;;;29.15;14.95;;;;;;;;;;5091993;28;20302;-44
2022/12/12 05:03:37;;;;;;;24.52;14.73;;;;;;;;;;5087642;28;20043;-43
2022/12/12 05:06:08;;;;;;;27.25;15.63;;;;;;;;;;5092625;28;20089;-43
2022/12/12 05:08:45;;;;;;;29.10;15.45;;;;;;;;;;5093109;28;20039;-44
2022/12/12 05:11:12;;;;;;;27.20;15.77;;;;;;;;;;5092445;28;20042;-43
2022/12/12 05:13:39;;;;;;;25.73;15.55;;;;;;;;;;5092663;28;20933;-47
2022/12/12 05:16:17;;;;;;;28.00;16.27;;;;;;;;;;5091968;28;21533;-44
2022/12/12 05:18:44;;;;;;;25.20;15.82;;;;;;;;;;5092046;28;20050;-44
2022/12/12 05:21:10;;;;;;;25.92;15.30;;;;;;;;;;5091519;28;20039;-44
2022/12/12 05:23:36;;;;;;;27.15;15.57;;;;;;;;;;5092910;28;20058;-48
2022/12/12 05:26:06;;;;;;;24.90;14.85;;;;;;;;;;5092441;28;20039;-44
2022/12/12 05:28:32;;;;;;;24.90;14.38;;;;;;;;;;5092790;28;20138;-45
2022/12/12 05:30:58;;;;;;;27.38;15.43;;;;;;;;;;5092139;28;20067;-44
2022/12/12 05:33:24;;;;;;;26.58;14.55;;;;;;;;;;5092016;28;20377;-44
2022/12/12 05:35:50;;;;;;;25.70;15.88;;;;;;;;;;5091899;28;20893;-44
2022/12/12 05:38:16;;;;;;;26.48;15.13;;;;;;;;;;5091987;28;20059;-46
2022/12/12 05:40:42;;;;;;;24.83;15.30;;;;;;;;;;5093162;28;20896;-44
2022/12/12 05:43:08;;;;;;;24.60;14.82;;;;;;;;;;5094888;28;20066;-44
2022/12/12 05:45:34;;;;;;;26.42;15.07;;;;;;;;;;5097434;27;20055;-45
2022/12/12 05:48:00;;;;;;;24.42;15.38;;;;;;;;;;5096749;27;20427;-44
2022/12/12 05:50:26;;;;;;;24.35;15.10;;;;;;;;;;5096349;27;20488;-46
2022/12/12 05:52:52;;;;;;;24.58;14.70;;;;;;;;;;5096149;27;20052;-47
2022/12/12 05:55:18;;;;;;;27.02;15.32;;;;;;;;;;5096544;28;20070;-44
2022/12/12 05:57:44;;;;;;;25.15;14.50;;;;;;;;;;5095933;27;20522;-44
2022/12/12 06:00:11;;;;;;;25.65;15.02;;;;;;;;;;5096372;27;20423;-43
2022/12/12 06:02:37;;;;;;;26.10;14.93;;;;;;;;;;5096073;27;20040;-45
2022/12/12 06:05:04;;;;;;;26.25;15.10;;;;;;;;;;5096518;27;20087;-45
2022/12/12 06:07:30;;;;;;;27.17;15.05;;;;;;;;;;5092961;28;20043;-44
2022/12/12 06:09:56;;;;;;;26.67;14.52;;;;;;;;;;5093815;27;20043;-45
2022/12/12 06:12:22;;;;;;;26.08;15.30;;;;;;;;;;5094384;27;20522;-43
2022/12/12 06:14:48;;;;;;;25.58;14.75;;;;;;;;;;5095968;28;20050;-48
2022/12/12 06:17:14;;;;;;;23.63;14.73;;;;;;;;;;5094665;27;20047;-44
2022/12/12 06:19:41;;;;;;;26.33;15.63;;;;;;;;;;5093940;27;20431;-44
2022/12/12 06:22:07;;;;;;;24.35;14.68;;;;;;;;;;5095159;28;20047;-44
2022/12/12 06:24:33;;;;;;;24.17;14.43;;;;;;;;;;5094683;28;20411;-43
2022/12/12 06:26:59;;;;;;;25.13;13.80;;;;;;;;;;5094520;27;20500;-45
2022/12/12 06:29:25;;;;;;;26.67;15.20;;;;;;;;;;5095100;27;20119;-44
2022/12/12 06:31:51;;;;;;;25.13;14.85;;;;;;;;;;5094715;27;20047;-47
2022/12/12 06:34:17;;;;;;;25.33;15.80;;;;;;;;;;5095200;27;20039;-46
2022/12/12 06:36:43;;;;;;;26.13;14.65;;;;;;;;;;5093999;28;20115;-43
2022/12/12 06:39:09;;;;;;;30.40;15.30;;;;;;;;;;5092901;27;20806;-45
2022/12/12 06:41:36;;;;;;;24.85;15.32;;;;;;;;;;5094758;27;20108;-44
2022/12/12 06:44:02;;;;;;;25.13;14.57;;;;;;;;;;5093818;28;20318;-44
2022/12/12 06:46:29;;;;;;;26.92;15.30;;;;;;;;;;5093829;28;20055;-45
2022/12/12 06:48:56;;;;;;;26.10;15.55;;;;;;;;;;5094249;28;20035;-44
2022/12/12 06:51:23;;;;;;;26.33;14.85;;;;;;;;;;5094458;27;20130;-45
2022/12/12 06:53:49;;;;;;;21.65;12.85;;;;;;;;;;5095110;27;20873;-44
2022/12/12 06:56:18;;;;;;;26.65;16.30;;;;;;;;;;5094024;27;20130;-46
2022/12/12 06:58:44;;;;;;;22.52;13.75;;;;;;;;;;5094158;27;20039;-44
2022/12/12 07:01:14;;;;;;;27.40;14.57;;;;;;;;;;5095109;27;20591;-44
2022/12/12 07:03:40;;;;;;;28.75;15.82;;;;;;;;;;5095866;27;20123;-44
2022/12/12 07:06:06;;;;;;;24.98;15.13;;;;;;;;;;5096742;28;20050;-44
2022/12/12 07:08:33;;;;;;;25.40;15.05;;;;;;;;;;5094962;28;20044;-44
2022/12/12 07:11:07;;;;;;;24.73;14.10;;;;;;;;;;5095450;27;20551;-44
2022/12/12 07:13:33;;;;;;;24.98;14.50;;;;;;;;;;5096055;27;20078;-44
2022/12/12 07:15:59;;;;;;;27.23;15.18;;;;;;;;;;5095104;28;20028;-44
2022/12/12 07:18:25;;;;;;;24.85;14.65;;;;;;;;;;5095817;27;20100;-46
2022/12/12 07:20:51;;;;;;;25.90;15.70;;;;;;;;;;5094860;28;20067;-44
2022/12/12 07:23:17;;;;;;;27.75;15.35;;;;;;;;;;5095366;27;20055;-45
2022/12/12 07:25:44;;;;;;;30.25;15.68;;;;;;;;;;5094122;28;20781;-44
2022/12/12 07:28:12;;;;;;;24.70;14.98;;;-0.20;99.90;;;;;;5095023;27;20040;-45
2022/12/12 07:30:42;;;;;;;24.77;15.57;;;;;;;;;;5094455;27;20131;-44
2022/12/12 07:33:08;;;;;;;23.63;14.35;;;;;;;;;;5094516;27;20032;-44
2022/12/12 07:35:35;;;;;;;29.20;16.73;;;;;;;;;;5095021;27;20119;-43
2022/12/12 07:38:02;;;;;;;24.50;14.65;;;;;;;;;;5093286;27;20035;-44
2022/12/12 07:40:28;;;;;;;24.33;14.73;;;;;;;;;;5094449;27;20555;-43
2022/12/12 07:42:54;;;;;;;26.40;15.65;;;;;;;;;;5092896;27;20540;-44
2022/12/12 07:45:20;;;;;;;26.10;15.20;;;;;;;;;;5093391;27;20043;-44
2022/12/12 07:47:46;;;;;;;25.27;14.85;;;;;;;;;;5093055;27;20039;-45
2022/12/12 07:50:12;;;;;;;25.95;16.13;;;;;;;;;;5094659;27;20039;-45
2022/12/12 07:52:39;;;;;;;26.33;15.20;;;;;;;;;;5093501;27;20043;-44
2022/12/12 07:55:05;;;;;;;27.30;15.98;;;;;;;;;;5093948;27;20457;-44
2022/12/12 07:57:32;;;;;;;22.23;13.27;;;;;;;;;;5094149;28;20079;-43
2022/12/12 07:59:58;;;;;;;27.80;15.63;;;;;;;;;;5093678;27;20035;-44
2022/12/12 08:02:24;;;;;;;31.73;15.50;;;;;;;;;;5092330;27;20040;-44
2022/12/12 08:04:50;;;;;;;26.02;15.57;;;;;;;;;;5092083;28;20227;-43
2022/12/12 08:07:16;;;;;;;25.40;15.38;;;;;;;;;;5093785;27;20150;-44
2022/12/12 08:09:42;;;;;;;25.63;15.80;;;;;;;;;;5093410;28;20077;-43
2022/12/12 08:12:09;;;;;;;26.52;16.48;;;;;;;;;;5093726;27;20046;-44
2022/12/12 08:14:36;;;;;;;26.92;15.80;;;;;;;;;;5093249;28;20047;-44
2022/12/12 08:17:02;;;;;;;25.52;14.88;;;;;;;;;;5093876;27;20054;-43
2022/12/12 08:19:28;;;;;;;26.20;14.55;;;;;;;;;;5095337;28;20280;-44
2022/12/12 08:21:54;;;;;;;25.85;15.32;;;;;;;;;;5093779;27;20042;-43
2022/12/12 08:24:20;;;;;;;25.92;15.57;;;;;;;;;;5094154;27;20035;-44
2022/12/12 08:26:48;;;;;;;27.42;16.58;;;;;;;;;;5093265;27;20039;-44
2022/12/12 08:29:14;;;;;;;25.27;15.48;;;;;;;;;;5094663;27;20035;-44
2022/12/12 08:31:41;;;;;;;27.15;15.80;;;;;;;;;;5092935;27;20061;-45
2022/12/12 08:34:07;;;;;;;24.52;15.23;;;;;;;;;;5092257;27;20055;-44
2022/12/12 08:36:34;;;;;;;27.05;15.43;;;;;;;;;;5092959;28;20040;-44
2022/12/12 08:39:11;;;;;;;23.85;14.85;;;0.00;99.90;;;;;;5092647;28;20046;-44
2022/12/12 08:41:39;;;;;;;27.48;14.77;;;;;;;;;;5090679;27;20055;-49
2022/12/12 08:44:05;;;;;;;25.85;15.00;;;;;;;;;;5092399;27;20058;-45
2022/12/12 08:46:31;;;;;;;23.23;14.20;;;;;;;;;;5093124;27;20059;-45
2022/12/12 08:48:57;;;;;;;21.77;13.90;;;;;;;;;;5091587;28;20131;-45
2022/12/12 08:51:23;;;;;;;24.55;14.18;;;;;;;;;;5092502;28;20036;-44
2022/12/12 08:53:51;;;;;;;24.23;14.63;;;;;;;;;;5092624;28;21138;-44
2022/12/12 08:56:18;;;;;;;26.10;14.85;;;;;;;;;;5092699;28;20032;-44
2022/12/12 08:58:44;;;;;;;26.92;15.60;;;;;;;;;;5091946;28;20552;-44
2022/12/12 09:01:28;;;;;;;24.13;15.32;;;0.20;99.90;;;;;;5091819;28;20405;-44
2022/12/12 09:03:55;;;;;;;26.08;15.73;;;;;;;;;;5092751;28;20051;-45
2022/12/12 09:06:22;;;;;;;24.23;15.70;;;;;;;;;;5092415;28;20064;-43
2022/12/12 09:08:48;;;;;;;25.55;16.13;;;0.10;99.90;;;;;;5091727;28;20031;-43
2022/12/12 09:11:16;;;;;;;25.40;15.75;;;;;;;;;;5091660;28;20040;-43
2022/12/12 09:13:43;;;;;;;24.23;14.82;;;;;;;;;;5092199;28;20082;-43
2022/12/12 09:16:09;;;;;;;24.60;15.27;;;;;;;;;;5096748;27;20500;-47
2022/12/12 09:18:36;;;;;;;27.92;15.52;;;;;;;;;;5097327;27;20051;-44
2022/12/12 09:21:03;;;;;;;26.88;16.17;;;;;;;;;;5096415;27;20058;-44
2022/12/12 09:23:29;;;;;;;25.85;14.48;;;;;;;;;;5095144;27;20498;-45
2022/12/12 09:25:55;;;;;;;23.75;14.73;;;;;;;;;;5096036;27;20603;-44
2022/12/12 09:28:22;;;;;;;22.48;14.52;;;;;;;;;;5097261;27;20043;-44
2022/12/12 09:30:49;;;;;;;26.95;16.50;;;;;;;;;;5095977;28;20047;-45
2022/12/12 09:33:16;;;;;;;23.75;15.10;;;;;;;;;;5095612;27;20035;-45
2022/12/12 09:35:42;;;;;;;22.67;14.27;;;;;;;;;;5095775;27;20131;-45
2022/12/12 09:38:09;;;;;;;24.13;14.77;;;;;;;;;;5097612;28;20219;-43
2022/12/12 09:40:52;;;;;;;24.60;13.90;;;0.60;99.90;;;;;;5097342;27;20047;-47
2022/12/12 09:43:25;;;;;;;26.65;16.05;;;0.70;99.90;;;;;;5095751;28;20036;-44
2022/12/12 09:45:51;;;;;;;23.30;14.25;;;;;;;;;;5096787;27;20317;-44
2022/12/12 09:48:44;;;;;;;22.40;15.07;;;;;;;;;;5096504;28;20035;-44
2022/12/12 09:51:10;;;;;;;25.23;14.73;;;;;;;;;;5091535;28;20051;-43
2022/12/12 09:53:39;;;;;;;24.90;15.10;;;1.70;99.90;;;;;;5097511;28;20146;-44
2022/12/12 09:56:05;;;;;;;22.35;14.90;;;;;;;;;;5097397;27;20043;-44
2022/12/12 09:58:40;;;;;;;23.55;14.23;;;;;;;;;;5095802;27;20036;-45
2022/12/12 10:01:24;;;;;;;23.48;15.07;;;2.30;99.90;;;;;;5097034;27;20047;-43
2022/12/12 10:03:59;;;;;;;22.05;14.57;;;5.20;99.90;;;;;;5095759;27;20051;-44
2022/12/12 10:06:31;;;;;;;23.13;14.38;;;3.30;99.90;;;;;;5096355;27;20283;-46
2022/12/12 10:08:57;;;;;;;20.33;13.98;;;;;;;;;;5096431;27;20039;-45
2022/12/12 10:11:49;;;;;;;21.88;14.00;;;3.50;99.90;;;;;;5095460;28;20040;-45
2022/12/12 10:14:37;;;;;;;21.48;13.02;;;3.20;99.90;;;;;;5095435;27;20085;-43
2022/12/12 10:17:10;;;;;;;21.45;13.65;;;2.70;99.90;;;;;;5094299;27;20046;-45
2022/12/12 10:19:46;;;;;;;22.27;14.65;;;2.40;99.90;;;;;;5094394;27;20074;-45
2022/12/12 10:22:45;;;;;;;21.05;13.45;;;2.20;99.90;;;;;;5095497;27;20044;-46
2022/12/12 10:25:23;;;;;;;19.23;12.93;;;;;;;;;;5094966;27;20039;-46
2022/12/12 10:28:07;;;;;;;19.75;13.57;;;2.00;99.90;;;;;;5095515;27;20054;-44
2022/12/12 10:30:45;;;;;;;22.50;14.30;;;1.80;99.90;;;;;;5095086;27;20043;-45
2022/12/12 10:33:23;;;;;;;21.48;13.95;;;;;;;;;;5094691;27;20046;-44
2022/12/12 10:35:59;;;;;;;22.08;14.30;;;1.50;99.90;;;;;;5094168;27;20039;-43
2022/12/12 10:38:31;;;;;;;19.70;13.20;;;;;;;;;;5094113;27;20124;-43
2022/12/12 10:41:13;;;;;;;22.17;13.63;;;;;;;;;;5094887;27;20042;-43
2022/12/12 10:44:17;;;;;;;20.97;14.17;;;1.20;99.90;;;;;;5094956;27;20043;-43
2022/12/12 10:46:52;;;;;;;22.88;13.35;;;1.40;99.90;;;;;;5075783;27;20051;-44
2022/12/12 10:49:21;;;;;;;19.50;12.68;;;1.40;99.90;;;;;;5094707;27;20043;-43
2022/12/12 10:51:48;;;;;;;20.90;14.27;;;1.30;99.90;;;;;;5093828;27;20078;-45
2022/12/12 10:54:18;;;;;;;18.83;12.45;;;1.30;99.90;;;;;;5096074;27;20061;-44
2022/12/12 10:57:04;;;;;;;20.92;13.98;;;1.40;99.90;;;;;;5095158;27;20055;-44
2022/12/12 10:59:30;;;;;;;23.10;14.82;;;;;;;;;;5093836;27;20050;-45
2022/12/12 11:01:59;;;;;;;21.48;13.40;;;1.30;99.90;;;;;;5093369;28;20397;-43
2022/12/12 11:04:30;;;;;;;22.30;14.25;;;1.30;99.90;;;;;;5093053;27;20751;-44
2022/12/12 11:06:56;;;;;;;21.98;14.00;;;;;;;;;;5093145;27;20035;-47
2022/12/12 11:09:24;;;;;;;22.83;14.18;;;;;;;;;;5094515;27;20126;-44
2022/12/12 11:12:08;;;;;;;24.02;14.77;;;1.30;99.90;;;;;;5093899;27;20046;-44
2022/12/12 11:14:46;;;;;;;21.70;14.55;;;1.10;99.90;;;;;;5093366;27;20035;-44
2022/12/12 11:17:25;;;;;;;21.25;14.10;;;1.50;99.90;;;;;;5094049;27;20934;-44
2022/12/12 11:19:53;;;;;;;22.35;14.20;;;1.30;99.90;;;;;;5093399;27;20035;-44
2022/12/12 11:22:20;;;;;;;22.35;14.05;;;;;;;;;;5093921;27;24102;-45
2022/12/12 11:24:46;;;;;;;23.15;14.80;;;;;;;;;;5094258;28;20529;-46
2022/12/12 11:27:38;;;;;;;23.98;15.30;;;1.40;99.90;;;;;;5091764;28;20039;-44
2022/12/12 11:30:06;;;;;;;23.08;15.27;;;1.40;99.90;;;;;;5093070;27;20040;-46
2022/12/12 11:32:43;;;;;;;25.20;15.25;;;;;;;;;;5094236;27;20055;-43
2022/12/12 11:35:23;;;;;;;24.42;15.18;;;;;;;;;;5094386;27;20071;-44
2022/12/12 11:37:54;;;;;;;19.70;13.15;;;1.50;99.90;;;;;;5093797;27;20047;-45
2022/12/12 11:40:28;;;;;;;23.38;14.60;;;;;;;;;;5094242;27;20135;-43
2022/12/12 11:43:13;;;;;;;22.92;14.57;;;1.50;99.90;;;;;;5093346;28;20059;-43
2022/12/12 11:45:39;;;;;;;27.45;16.30;;;;;;;;;;5093866;27;20053;-43
2022/12/12 11:48:24;;;;;;;23.33;14.48;;;;;;;;;;5095162;28;20067;-45
2022/12/12 11:50:50;;;;;;;23.35;14.90;;;;;;;;;;5094269;27;20040;-45
2022/12/12 11:53:16;;;;;;;24.85;15.85;;;;;;;;;;5093014;27;20454;-43
2022/12/12 11:56:19;;;;;;;25.67;15.80;;;1.40;99.90;;;;;;5093371;27;20062;-44
2022/12/12 11:58:54;;;;;;;23.42;15.15;;;1.60;99.90;;;;;;5092821;27;20035;-45
2022/12/12 12:01:30;;;;;;;21.55;14.45;;;1.60;99.90;;;;;;5093982;27;20396;-44
2022/12/12 12:04:18;;;;;;;25.73;15.70;;;1.40;99.90;;;;;;5090816;28;20070;-44
2022/12/12 12:06:52;;;;;;;22.48;15.07;;;1.60;99.90;;;;;;5091875;28;20047;-43
2022/12/12 12:09:36;;;;;;;23.60;15.60;;;1.60;99.90;;;;;;5091019;27;20566;-46
2022/12/12 12:12:02;;;;;;;24.80;15.70;;;;;;;;;;5092203;28;20152;-44
2022/12/12 12:14:46;;;;;;;25.50;15.93;;;1.60;99.90;;;;;;5092439;28;20043;-45
2022/12/12 12:17:27;;;;;;;25.20;15.15;;;;;;;;;;5092428;28;20124;-44
2022/12/12 12:20:05;;;;;;;24.98;15.65;;;;;;;;;;5093001;28;20082;-44
2022/12/12 12:22:40;;;;;;;22.67;14.63;;;1.60;99.90;;;;;;5092012;28;20031;-45
2022/12/12 12:25:21;;;;;;;24.70;15.23;;;1.60;99.90;;;;;;5092745;27;20126;-43
2022/12/12 12:28:00;;;;;;;24.17;15.10;;;1.50;99.90;;;;;;5093366;27;20042;-44
2022/12/12 12:30:37;;;;;;;26.30;16.13;;;1.70;99.90;;;;;;5091507;28;20100;-43
2022/12/12 12:33:27;;;;;;;23.55;14.98;;;1.70;99.90;;;;;;5092123;28;20096;-43
2022/12/12 12:36:05;;;;;;;24.55;15.73;;;1.50;99.90;;;;;;5091292;28;20036;-42
2022/12/12 12:38:31;;;;;;;22.88;15.63;;;;;;;;;;5092379;28;20074;-45
2022/12/12 12:41:05;;;;;;;24.73;14.98;;;1.50;99.90;;;;;;5092050;28;20036;-43
2022/12/12 12:43:50;;;;;;;25.15;15.40;;;;;;;;;;5092795;28;20059;-42
2022/12/12 12:46:36;;;;;;;25.73;15.20;;;1.50;99.90;;;;;;5092235;28;20411;-43
2022/12/12 12:49:17;;;;;;;27.83;15.15;;;1.50;99.90;;;;;;5092663;28;20027;-43
2022/12/12 12:52:15;;;;;;;24.35;15.40;;;1.60;99.90;;;;;;5094406;27;20964;-42
2022/12/12 12:54:45;;;;;;;24.77;15.95;;;1.60;99.90;;;;;;5086675;28;20077;-45
2022/12/12 12:57:23;;;;;;;24.35;15.10;;;1.60;99.90;;;;;;5093273;28;20062;-43
2022/12/12 13:00:14;;;;;;;24.08;15.68;;;;;;;;;;5093584;28;20110;-44
2022/12/12 13:03:00;;;;;;;22.38;14.18;;;1.50;99.90;;;;;;5094519;28;20123;-43
2022/12/12 13:05:32;;;;;;;27.90;16.92;;;1.50;99.90;;;;;;5093903;28;20040;-43
2022/12/12 13:08:24;;;;;;;22.10;14.30;;;1.50;99.90;;;;;;5094218;28;20043;-42
2022/12/12 13:10:54;;;;;;;23.52;14.50;;;1.50;99.90;;;;;;5093936;28;20627;-43
2022/12/12 13:13:28;;;;;;;25.73;17.48;;;1.50;99.90;;;;;;5093989;28;20036;-44
2022/12/12 13:16:17;;;;;;;27.50;17.25;;;1.50;99.90;;;;;;5092032;28;20039;-44
2022/12/12 13:18:46;;;;;;;22.08;14.02;;;1.40;99.90;;;;;;5093714;28;20047;-43
2022/12/12 13:21:12;;;;;;;28.52;14.88;;;;;;;;;;5092513;27;20243;-43
2022/12/12 13:23:58;;;;;;;24.77;14.82;;;;;;;;;;5091480;28;20048;-45
2022/12/12 13:26:24;;;;;;;19.27;13.23;;;;;;;;;;5091906;28;20699;-44
2022/12/12 13:28:58;;;;;;;20.90;13.50;;;;;;;;;;5091369;28;20058;-43
2022/12/12 13:31:30;;;;;;;24.05;13.68;;;;;;;;;;5090864;28;20082;-44
2022/12/12 13:34:11;;;;;;;23.33;14.10;;;1.40;99.90;;;;;;5091572;28;20360;-44
2022/12/12 13:36:40;;;;;;;27.67;15.10;;;;;;;;;;5091591;28;20054;-43
2022/12/12 13:39:07;;;;;;;20.27;12.73;;;;;;;;;;5092508;28;20120;-44
2022/12/12 13:41:53;;;;;;;25.98;12.65;;;1.30;99.90;;;;;;5091039;28;20101;-43
2022/12/12 13:44:33;;;;;;;21.17;12.73;;;;;;;;;;5091647;28;20602;-44
2022/12/12 13:46:59;;;;;;;20.75;12.75;;;;;;;;;;5091301;28;20390;-42
2022/12/12 13:49:53;;;;;;;24.20;14.10;;;1.20;99.90;;;;;;5091216;28;20040;-43
2022/12/12 13:52:27;;;;;;;20.40;12.32;;;1.20;99.90;;;;;;5091312;28;20039;-43
2022/12/12 13:55:12;;;;;;;18.50;11.82;;;;;;;;;;5091460;28;20043;-43
2022/12/12 13:57:58;;;;;;;19.73;12.38;;;1.20;99.90;;;;;;5091779;28;20096;-44
2022/12/12 14:00:27;;;;;;;18.52;11.73;;;1.20;99.90;;;;;;5069737;27;20104;-43
2022/12/12 14:03:11;;;;;;;20.08;12.95;;;1.20;99.90;;;;;;5094755;28;20042;-45
2022/12/12 14:05:42;;;;;;;20.20;12.70;;;1.20;99.90;;;;;;5095302;28;20694;-43
2022/12/12 14:08:12;;;;;;;18.77;12.02;;;;;;;;;;5095412;27;20528;-45
2022/12/12 14:10:58;;;;;;;20.30;13.88;;;1.40;99.90;;;;;;5095879;27;20054;-43
2022/12/12 14:13:31;;;;;;;23.55;12.60;;;1.10;99.90;;;;;;5095233;27;20488;-43
2022/12/12 14:15:57;;;;;;;20.38;13.25;;;;;;;;;;5095299;27;20044;-43
2022/12/12 14:18:26;;;;;;;20.88;12.43;;;0.90;99.90;;;;;;5096218;27;20035;-42
2022/12/12 14:21:02;;;;;;;18.63;12.57;;;1.00;99.90;;;;;;5096092;27;20042;-42
2022/12/12 14:23:28;;;;;;;22.75;13.93;;;;;;;;;;5095916;27;20055;-42
2022/12/12 14:25:55;;;;;;;22.13;13.43;;;;;;;;;;5096119;27;20039;-44
2022/12/12 14:28:32;;;;;;;19.60;12.75;;;1.10;99.90;;;;;;5096207;27;21410;-43